Terminal Aerodrome Forecast
Issued by NWS

Home | Current Version | Previous Version | Text Only | Print | Product List | Glossary On
Versions: 1 2 3 4 5 6 7 8 9 10 11 12 13 14 15 16 17 18 19 20 21 22 23
000
FTUS46 KEKA 252335
TAFUKI
TAF
KUKI 252335Z 2600/2624 29005KT P6SM SCT060 SCT100 BKN250
     FM260400 VRB03KT P6SM SCT060 BKN100 OVC250
     FM260800 VRB03KT P6SM OVC050
     FM261700 14003KT P6SM VCSH SCT020 OVC040
     FM262200 16007KT P6SM -RA BKN025 OVC040=

USA.gov is the U.S. government's official web portal to all federal, state and local government web resources and services.